sim
Sign-in with your pilot id or email,
or register
Callsign
Passwort

Schedule Details

Flight Number: RYR8587
Departure: London Stansted Airport (EGSS) at 14:30
Arrival: Thessaloniki International Airport (LGTS) at 17:40
Route: Ryanair Passenger Schedule. Enter filed route here before submitting Pirep.

Weather Information
Getting current METAR information for EGSS 211220Z AUTO 24010KT 210V290 9999 BKN014 13/08 Q1026
Getting current METAR information for LGTS 211220Z 34013KT 9999 FEW030 16/00 Q1022 NOSIG

Schedule Frequency

Route Map